Impacts TAF Board INFO
FOR SITUATIONAL AWARENESS. NOT TO BE USED FOR FLIGHT PLANNING PURPOSES.
IDs:

KJFK - New York/Kennedy Int, NY, US

Issued at 0904 UTC 19 Nov 2017
Updated at 1022 UTC 19 Nov 2017
Potential Impact None Slight Moderate High
Time<<20/11Z 20/12Z 20/13Z 20/14Z 20/15Z 20/16Z 20/17Z 20/18Z 20/19Z 20/20Z 20/21Z 20/22Z 20/23Z
Type PRVL
VIS >6
CIG --
Cover FEW
FltCat VFR
WX --
WDir 290
WSpd 16
WGst 25

Raw TAF
KJFK 190904Z 1909/2012 20022KT 6SM SHRA BR BKN025 WS020/22050KT
  FM191200 25022G40KT P6SM -SHRA SCT025 BKN035
  FM191500 28023G39KT P6SM BKN040
  FM191900 28023G35KT P6SM SCT050
  FM192300 29018G28KT P6SM SCT050
  FM200600 29016G25KT P6SM FEW050


METAR Board
Radar Display
Forecast Discussion

FOR SITUATIONAL AWARENESS. NOT TO BE USED FOR FLIGHT PLANNING PURPOSES.